sensor_id;sensor_type;location;lat;lon;timestamp;pressure;altitude;pressure_sealevel;temperature;humidity
28310;BME280;15571;50.974;13.936;2023-06-14T00:00:40;100073.16;;;15.17;100.00
28310;BME280;15571;50.974;13.936;2023-06-14T00:03:44;100073.19;;;15.16;100.00
28310;BME280;15571;50.974;13.936;2023-06-14T00:06:47;100066.38;;;15.07;100.00
28310;BME280;15571;50.974;13.936;2023-06-14T00:09:51;100063.03;;;15.00;100.00
28310;BME280;15571;50.974;13.936;2023-06-14T00:12:56;100069.47;;;14.90;100.00
28310;BME280;15571;50.974;13.936;2023-06-14T00:15:58;100060.88;;;14.82;100.00
28310;BME280;15571;50.974;13.936;2023-06-14T00:19:00;100063.88;;;14.69;100.00
28310;BME280;15571;50.974;13.936;2023-06-14T00:22:05;100068.63;;;14.52;100.00
28310;BME280;15571;50.974;13.936;2023-06-14T00:25:10;100064.41;;;14.44;100.00
28310;BME280;15571;50.974;13.936;2023-06-14T00:28:13;100072.59;;;14.34;100.00
28310;BME280;15571;50.974;13.936;2023-06-14T00:31:15;100074.44;;;14.30;100.00
28310;BME280;15571;50.974;13.936;2023-06-14T00:34:17;100070.06;;;14.29;100.00
28310;BME280;15571;50.974;13.936;2023-06-14T00:37:21;100070.97;;;14.28;100.00
28310;BME280;15571;50.974;13.936;2023-06-14T00:40:23;100069.97;;;14.32;100.00
28310;BME280;15571;50.974;13.936;2023-06-14T00:43:26;100072.69;;;14.29;100.00
28310;BME280;15571;50.974;13.936;2023-06-14T00:46:28;100078.75;;;14.31;100.00
28310;BME280;15571;50.974;13.936;2023-06-14T00:49:30;100076.97;;;14.33;100.00
28310;BME280;15571;50.974;13.936;2023-06-14T00:52:34;100082.31;;;14.30;100.00
28310;BME280;15571;50.974;13.936;2023-06-14T00:55:37;100078.75;;;14.31;100.00
28310;BME280;15571;50.974;13.936;2023-06-14T00:58:39;100073.47;;;14.32;100.00
28310;BME280;15571;50.974;13.936;2023-06-14T01:01:41;100077.91;;;14.30;100.00
28310;BME280;15571;50.974;13.936;2023-06-14T01:04:45;100077.06;;;14.28;100.00
28310;BME280;15571;50.974;13.936;2023-06-14T01:08:01;100074.53;;;14.25;100.00
28310;BME280;15571;50.974;13.936;2023-06-14T01:11:12;100080.91;;;14.13;100.00
28310;BME280;15571;50.974;13.936;2023-06-14T01:14:21;100079.53;;;13.97;100.00
28310;BME280;15571;50.974;13.936;2023-06-14T01:17:23;100080.53;;;13.91;100.00
28310;BME280;15571;50.974;13.936;2023-06-14T01:20:29;100082.31;;;13.89;100.00
28310;BME280;15571;50.974;13.936;2023-06-14T01:23:35;100081.47;;;13.89;100.00
28310;BME280;15571;50.974;13.936;2023-06-14T01:26:38;100080.69;;;13.85;100.00
28310;BME280;15571;50.974;13.936;2023-06-14T01:29:48;100083.31;;;13.83;100.00
28310;BME280;15571;50.974;13.936;2023-06-14T01:32:52;100078.97;;;13.82;100.00
28310;BME280;15571;50.974;13.936;2023-06-14T01:35:56;100071.06;;;13.82;100.00
28310;BME280;15571;50.974;13.936;2023-06-14T01:39:00;100074.59;;;13.81;100.00
28310;BME280;15571;50.974;13.936;2023-06-14T01:42:04;100080.78;;;13.79;100.00
28310;BME280;15571;50.974;13.936;2023-06-14T01:45:08;100075.66;;;13.73;100.00
28310;BME280;15571;50.974;13.936;2023-06-14T01:48:11;100076.59;;;13.70;100.00
28310;BME280;15571;50.974;13.936;2023-06-14T01:51:14;100072.25;;;13.69;100.00
28310;BME280;15571;50.974;13.936;2023-06-14T01:54:17;100064.41;;;13.66;100.00
28310;BME280;15571;50.974;13.936;2023-06-14T01:57:22;100065.59;;;13.51;100.00
28310;BME280;15571;50.974;13.936;2023-06-14T02:00:24;100070.19;;;13.39;100.00
28310;BME280;15571;50.974;13.936;2023-06-14T02:03:27;100064.97;;;13.36;100.00
28310;BME280;15571;50.974;13.936;2023-06-14T02:06:29;100077.22;;;13.36;100.00
28310;BME280;15571;50.974;13.936;2023-06-14T02:09:32;100068.59;;;13.31;100.00
28310;BME280;15571;50.974;13.936;2023-06-14T02:12:37;100079.16;;;13.28;100.00
28310;BME280;15571;50.974;13.936;2023-06-14T02:15:39;100087.94;;;13.27;100.00
28310;BME280;15571;50.974;13.936;2023-06-14T02:18:44;100088.06;;;13.20;100.00
28310;BME280;15571;50.974;13.936;2023-06-14T02:21:47;100094.34;;;13.12;100.00
28310;BME280;15571;50.974;13.936;2023-06-14T02:24:50;100086.53;;;13.07;100.00
28310;BME280;15571;50.974;13.936;2023-06-14T02:27:53;100087.41;;;13.06;100.00
28310;BME280;15571;50.974;13.936;2023-06-14T02:30:57;100084.78;;;13.06;100.00
28310;BME280;15571;50.974;13.936;2023-06-14T02:33:59;100084.88;;;13.03;100.00
28310;BME280;15571;50.974;13.936;2023-06-14T02:37:01;100085.88;;;12.94;100.00
28310;BME280;15571;50.974;13.936;2023-06-14T02:40:07;100078.00;;;12.94;100.00
28310;BME280;15571;50.974;13.936;2023-06-14T02:43:10;100087.66;;;12.92;100.00
28310;BME280;15571;50.974;13.936;2023-06-14T02:46:13;100087.72;;;12.89;100.00
28310;BME280;15571;50.974;13.936;2023-06-14T02:49:15;100097.38;;;12.88;100.00
28310;BME280;15571;50.974;13.936;2023-06-14T02:52:18;100092.22;;;12.82;100.00
28310;BME280;15571;50.974;13.936;2023-06-14T02:55:22;100093.03;;;12.84;100.00
28310;BME280;15571;50.974;13.936;2023-06-14T02:58:24;100108.00;;;12.81;100.00
28310;BME280;15571;50.974;13.936;2023-06-14T03:01:27;100094.97;;;12.74;100.00
28310;BME280;15571;50.974;13.936;2023-06-14T03:04:41;100099.41;;;12.71;100.00
28310;BME280;15571;50.974;13.936;2023-06-14T03:07:49;100103.84;;;12.66;100.00
28310;BME280;15571;50.974;13.936;2023-06-14T03:10:53;100112.66;;;12.63;100.00
28310;BME280;15571;50.974;13.936;2023-06-14T03:13:58;100113.53;;;12.64;100.00
28310;BME280;15571;50.974;13.936;2023-06-14T03:17:01;100126.69;;;12.64;100.00
28310;BME280;15571;50.974;13.936;2023-06-14T03:20:07;100117.94;;;12.60;100.00
28310;BME280;15571;50.974;13.936;2023-06-14T03:23:10;100127.56;;;12.61;100.00
28310;BME280;15571;50.974;13.936;2023-06-14T03:26:15;100120.59;;;12.58;100.00
28310;BME280;15571;50.974;13.936;2023-06-14T03:29:20;100122.50;;;12.50;100.00
28310;BME280;15571;50.974;13.936;2023-06-14T03:32:22;100125.06;;;12.53;100.00
28310;BME280;15571;50.974;13.936;2023-06-14T03:35:24;100129.41;;;12.56;100.00
28310;BME280;15571;50.974;13.936;2023-06-14T03:38:26;100132.84;;;12.59;100.00
28310;BME280;15571;50.974;13.936;2023-06-14T03:41:30;100137.25;;;12.57;100.00
28310;BME280;15571;50.974;13.936;2023-06-14T03:44:33;100135.44;;;12.61;100.00
28310;BME280;15571;50.974;13.936;2023-06-14T03:47:35;100138.91;;;12.63;100.00
28310;BME280;15571;50.974;13.936;2023-06-14T03:50:38;100148.56;;;12.63;100.00
28310;BME280;15571;50.974;13.936;2023-06-14T03:53:40;100149.50;;;12.58;100.00
28310;BME280;15571;50.974;13.936;2023-06-14T03:56:44;100152.16;;;12.55;100.00
28310;BME280;15571;50.974;13.936;2023-06-14T03:59:47;100153.97;;;12.52;100.00
28310;BME280;15571;50.974;13.936;2023-06-14T04:02:49;100149.56;;;12.54;100.00
28310;BME280;15571;50.974;13.936;2023-06-14T04:05:53;100155.63;;;12.57;100.00
28310;BME280;15571;50.974;13.936;2023-06-14T04:08:59;100157.38;;;12.58;100.00
28310;BME280;15571;50.974;13.936;2023-06-14T04:12:09;100160.81;;;12.64;100.00
28310;BME280;15571;50.974;13.936;2023-06-14T04:15:15;100153.84;;;12.59;100.00
28310;BME280;15571;50.974;13.936;2023-06-14T04:18:17;100159.94;;;12.63;100.00
28310;BME280;15571;50.974;13.936;2023-06-14T04:21:20;100165.06;;;12.71;100.00
28310;BME280;15571;50.974;13.936;2023-06-14T04:24:26;100157.13;;;12.74;100.00
28310;BME280;15571;50.974;13.936;2023-06-14T04:27:34;100167.59;;;12.77;100.00
28310;BME280;15571;50.974;13.936;2023-06-14T04:30:39;100170.16;;;12.83;100.00
28310;BME280;15571;50.974;13.936;2023-06-14T04:33:42;100170.09;;;12.85;100.00
28310;BME280;15571;50.974;13.936;2023-06-14T04:36:50;100156.81;;;12.94;100.00
28310;BME280;15571;50.974;13.936;2023-06-14T04:39:55;100159.41;;;12.97;100.00
28310;BME280;15571;50.974;13.936;2023-06-14T04:43:03;100170.66;;;13.04;100.00
28310;BME280;15571;50.974;13.936;2023-06-14T04:46:07;100167.16;;;13.06;100.00
28310;BME280;15571;50.974;13.936;2023-06-14T04:49:12;100182.75;;;13.14;100.00
28310;BME280;15571;50.974;13.936;2023-06-14T04:52:16;100185.41;;;13.13;100.00
28310;BME280;15571;50.974;13.936;2023-06-14T04:55:19;100182.75;;;13.14;100.00
28310;BME280;15571;50.974;13.936;2023-06-14T04:58:28;100189.75;;;13.17;100.00
28310;BME280;15571;50.974;13.936;2023-06-14T05:01:32;100194.00;;;13.24;100.00
28310;BME280;15571;50.974;13.936;2023-06-14T05:04:36;100187.84;;;13.25;100.00
28310;BME280;15571;50.974;13.936;2023-06-14T05:07:40;100184.38;;;13.23;100.00
28310;BME280;15571;50.974;13.936;2023-06-14T05:10:42;100192.38;;;13.17;100.00
28310;BME280;15571;50.974;13.936;2023-06-14T05:13:46;100196.50;;;13.30;100.00
28310;BME280;15571;50.974;13.936;2023-06-14T05:16:48;100187.66;;;13.36;100.00
28310;BME280;15571;50.974;13.936;2023-06-14T05:19:51;100196.22;;;13.50;100.00
28310;BME280;15571;50.974;13.936;2023-06-14T05:22:53;100186.34;;;13.62;100.00
28310;BME280;15571;50.974;13.936;2023-06-14T05:25:55;100192.34;;;13.70;100.00
28310;BME280;15571;50.974;13.936;2023-06-14T05:28:59;100192.25;;;13.75;100.00
28310;BME280;15571;50.974;13.936;2023-06-14T05:32:02;100197.34;;;13.82;100.00
28310;BME280;15571;50.974;13.936;2023-06-14T05:35:05;100193.81;;;13.83;100.00
28310;BME280;15571;50.974;13.936;2023-06-14T05:38:07;100198.09;;;13.91;100.00
28310;BME280;15571;50.974;13.936;2023-06-14T05:41:17;100201.44;;;13.97;100.00
28310;BME280;15571;50.974;13.936;2023-06-14T05:44:25;100206.81;;;13.93;100.00
28310;BME280;15571;50.974;13.936;2023-06-14T05:47:27;100206.56;;;14.05;100.00
28310;BME280;15571;50.974;13.936;2023-06-14T05:50:29;100203.78;;;14.11;100.00
28310;BME280;15571;50.974;13.936;2023-06-14T05:53:31;100202.41;;;14.36;100.00
28310;BME280;15571;50.974;13.936;2023-06-14T05:56:35;100208.22;;;14.52;100.00
28310;BME280;15571;50.974;13.936;2023-06-14T05:59:39;100195.69;;;14.63;100.00
28310;BME280;15571;50.974;13.936;2023-06-14T06:02:41;100193.56;;;14.81;100.00
28310;BME280;15571;50.974;13.936;2023-06-14T06:05:44;100204.06;;;14.82;100.00
28310;BME280;15571;50.974;13.936;2023-06-14T06:08:46;100200.78;;;14.72;100.00
28310;BME280;15571;50.974;13.936;2023-06-14T06:11:48;100208.91;;;14.99;100.00
28310;BME280;15571;50.974;13.936;2023-06-14T06:14:51;100206.59;;;15.23;100.00
28310;BME280;15571;50.974;13.936;2023-06-14T06:17:53;100200.00;;;15.41;100.00
28310;BME280;15571;50.974;13.936;2023-06-14T06:20:55;100216.41;;;15.52;100.00
28310;BME280;15571;50.974;13.936;2023-06-14T06:23:58;100212.41;;;15.70;100.00
28310;BME280;15571;50.974;13.936;2023-06-14T06:27:03;100205.31;;;15.72;100.00
28310;BME280;15571;50.974;13.936;2023-06-14T06:30:13;100214.97;;;15.74;100.00
28310;BME280;15571;50.974;13.936;2023-06-14T06:33:16;100217.69;;;15.70;100.00
28310;BME280;15571;50.974;13.936;2023-06-14T06:36:18;100213.84;;;15.84;100.00
28310;BME280;15571;50.974;13.936;2023-06-14T06:39:22;100225.66;;;16.02;100.00
28310;BME280;15571;50.974;13.936;2023-06-14T06:42:24;100230.31;;;16.25;100.00
28310;BME280;15571;50.974;13.936;2023-06-14T06:45:28;100237.44;;;16.52;100.00
28310;BME280;15571;50.974;13.936;2023-06-14T06:48:31;100237.16;;;16.61;100.00
28310;BME280;15571;50.974;13.936;2023-06-14T06:51:35;100231.38;;;16.78;100.00
28310;BME280;15571;50.974;13.936;2023-06-14T06:54:37;100234.91;;;16.77;100.00
28310;BME280;15571;50.974;13.936;2023-06-14T06:57:39;100218.50;;;16.65;100.00
28310;BME280;15571;50.974;13.936;2023-06-14T07:00:42;100220.91;;;16.75;100.00
28310;BME280;15571;50.974;13.936;2023-06-14T07:03:44;100219.69;;;16.85;100.00
28310;BME280;15571;50.974;13.936;2023-06-14T07:06:46;100218.47;;;16.97;100.00
28310;BME280;15571;50.974;13.936;2023-06-14T07:09:49;100216.69;;;16.98;100.00
28310;BME280;15571;50.974;13.936;2023-06-14T07:12:51;100218.59;;;16.92;100.00
28310;BME280;15571;50.974;13.936;2023-06-14T07:15:57;100221.06;;;16.99;100.00
28310;BME280;15571;50.974;13.936;2023-06-14T07:19:03;100222.59;;;17.06;100.00
28310;BME280;15571;50.974;13.936;2023-06-14T07:22:05;100227.78;;;17.09;100.00
28310;BME280;15571;50.974;13.936;2023-06-14T07:25:08;100215.28;;;17.14;100.00
28310;BME280;15571;50.974;13.936;2023-06-14T07:28:12;100215.00;;;17.22;100.00
28310;BME280;15571;50.974;13.936;2023-06-14T07:31:16;100211.66;;;17.43;100.00
28310;BME280;15571;50.974;13.936;2023-06-14T07:34:22;100210.16;;;17.62;100.00
28310;BME280;15571;50.974;13.936;2023-06-14T07:37:24;100206.47;;;17.66;100.00
28310;BME280;15571;50.974;13.936;2023-06-14T07:40:26;100212.09;;;17.82;100.00
28310;BME280;15571;50.974;13.936;2023-06-14T07:43:28;100205.53;;;17.92;100.00
28310;BME280;15571;50.974;13.936;2023-06-14T07:46:32;100212.34;;;18.01;100.00
28310;BME280;15571;50.974;13.936;2023-06-14T07:49:35;100211.06;;;18.11;100.00
28310;BME280;15571;50.974;13.936;2023-06-14T07:52:38;100201.91;;;18.20;100.00
28310;BME280;15571;50.974;13.936;2023-06-14T07:55:43;100209.69;;;18.25;100.00
28310;BME280;15571;50.974;13.936;2023-06-14T07:58:45;100212.97;;;18.31;100.00
28310;BME280;15571;50.974;13.936;2023-06-14T08:01:48;100205.81;;;18.33;100.00
28310;BME280;15571;50.974;13.936;2023-06-14T08:04:50;100213.41;;;18.43;100.00
28310;BME280;15571;50.974;13.936;2023-06-14T08:07:53;100208.75;;;18.49;100.00
28310;BME280;15571;50.974;13.936;2023-06-14T08:10:55;100213.81;;;18.56;100.00
28310;BME280;15571;50.974;13.936;2023-06-14T08:13:57;100219.19;;;18.54;100.00
28310;BME280;15571;50.974;13.936;2023-06-14T08:17:01;100224.75;;;18.46;100.00
28310;BME280;15571;50.974;13.936;2023-06-14T08:20:07;100212.88;;;18.57;96.28
28310;BME280;15571;50.974;13.936;2023-06-14T08:23:09;100215.66;;;18.54;100.00
28310;BME280;15571;50.974;13.936;2023-06-14T08:26:12;100219.81;;;18.61;100.00
28310;BME280;15571;50.974;13.936;2023-06-14T08:29:17;100225.34;;;18.55;92.56
28310;BME280;15571;50.974;13.936;2023-06-14T08:32:20;100224.41;;;18.56;92.11
28310;BME280;15571;50.974;13.936;2023-06-14T08:35:22;100224.16;;;18.62;94.26
28310;BME280;15571;50.974;13.936;2023-06-14T08:38:24;100217.72;;;18.69;93.65
28310;BME280;15571;50.974;13.936;2023-06-14T08:41:28;100221.38;;;18.89;85.36
28310;BME280;15571;50.974;13.936;2023-06-14T08:44:30;100214.56;;;18.81;87.54
28310;BME280;15571;50.974;13.936;2023-06-14T08:47:37;100217.47;;;18.75;87.91
28310;BME280;15571;50.974;13.936;2023-06-14T08:50:41;100215.13;;;18.90;88.24
28310;BME280;15571;50.974;13.936;2023-06-14T08:53:46;100223.47;;;18.80;90.65
28310;BME280;15571;50.974;13.936;2023-06-14T08:56:51;100209.94;;;18.87;93.55
28310;BME280;15571;50.974;13.936;2023-06-14T08:59:54;100220.63;;;18.85;91.70
28310;BME280;15571;50.974;13.936;2023-06-14T09:02:58;100221.22;;;18.92;89.63
28310;BME280;15571;50.974;13.936;2023-06-14T09:06:00;100219.63;;;18.88;89.74
28310;BME280;15571;50.974;13.936;2023-06-14T09:09:04;100227.78;;;19.05;89.38
28310;BME280;15571;50.974;13.936;2023-06-14T09:12:08;100235.69;;;19.29;82.79
28310;BME280;15571;50.974;13.936;2023-06-14T09:15:13;100233.41;;;19.20;83.66
28310;BME280;15571;50.974;13.936;2023-06-14T09:18:19;100240.47;;;19.41;80.86
28310;BME280;15571;50.974;13.936;2023-06-14T09:21:21;100230.25;;;19.73;81.70
28310;BME280;15571;50.974;13.936;2023-06-14T09:24:24;100228.66;;;19.69;83.67
28310;BME280;15571;50.974;13.936;2023-06-14T09:27:29;100228.13;;;19.82;82.35
28310;BME280;15571;50.974;13.936;2023-06-14T09:30:31;100228.13;;;19.82;75.78
28310;BME280;15571;50.974;13.936;2023-06-14T09:33:34;100227.94;;;19.66;68.93
28310;BME280;15571;50.974;13.936;2023-06-14T09:36:40;100224.66;;;19.80;72.99
28310;BME280;15571;50.974;13.936;2023-06-14T09:39:51;100222.97;;;19.79;74.11
28310;BME280;15571;50.974;13.936;2023-06-14T09:42:53;100216.06;;;19.74;73.41
28310;BME280;15571;50.974;13.936;2023-06-14T09:45:58;100231.34;;;19.90;75.49
28310;BME280;15571;50.974;13.936;2023-06-14T09:49:04;100220.13;;;19.83;71.98
28310;BME280;15571;50.974;13.936;2023-06-14T09:52:07;100218.72;;;19.95;73.27
28310;BME280;15571;50.974;13.936;2023-06-14T09:55:12;100211.69;;;19.94;75.38
28310;BME280;15571;50.974;13.936;2023-06-14T09:58:16;100204.78;;;19.90;82.72
28310;BME280;15571;50.974;13.936;2023-06-14T10:01:20;100221.97;;;19.81;82.98
28310;BME280;15571;50.974;13.936;2023-06-14T10:04:24;100219.97;;;19.66;84.07
28310;BME280;15571;50.974;13.936;2023-06-14T10:07:27;100212.16;;;19.63;84.68
28310;BME280;15571;50.974;13.936;2023-06-14T10:10:35;100209.22;;;19.48;89.61
28310;BME280;15571;50.974;13.936;2023-06-14T10:13:40;100213.13;;;19.60;90.64
28310;BME280;15571;50.974;13.936;2023-06-14T10:16:54;100211.28;;;19.62;90.09
28310;BME280;15571;50.974;13.936;2023-06-14T10:20:07;100220.84;;;19.46;92.13
28310;BME280;15571;50.974;13.936;2023-06-14T10:23:16;100221.56;;;19.49;89.66
28310;BME280;15571;50.974;13.936;2023-06-14T10:26:20;100212.00;;;19.66;86.19
28310;BME280;15571;50.974;13.936;2023-06-14T10:29:25;100207.69;;;19.63;88.94
28310;BME280;15571;50.974;13.936;2023-06-14T10:32:32;100220.31;;;19.79;90.52
28310;BME280;15571;50.974;13.936;2023-06-14T10:35:38;100208.09;;;19.54;90.98
28310;BME280;15571;50.974;13.936;2023-06-14T10:38:42;100221.50;;;19.71;90.86
28310;BME280;15571;50.974;13.936;2023-06-14T10:41:51;100211.09;;;19.87;89.41
28310;BME280;15571;50.974;13.936;2023-06-14T10:44:54;100213.59;;;20.11;85.51
28310;BME280;15571;50.974;13.936;2023-06-14T10:47:57;100207.56;;;20.08;84.94
28310;BME280;15571;50.974;13.936;2023-06-14T10:51:01;100206.47;;;20.12;87.76
28310;BME280;15571;50.974;13.936;2023-06-14T10:54:11;100207.69;;;20.04;86.49
28310;BME280;15571;50.974;13.936;2023-06-14T10:57:13;100205.13;;;20.22;85.23
28310;BME280;15571;50.974;13.936;2023-06-14T11:00:16;100209.28;;;20.28;84.07
28310;BME280;15571;50.974;13.936;2023-06-14T11:03:50;100198.53;;;20.31;87.38
28310;BME280;15571;50.974;13.936;2023-06-14T11:07:05;100201.81;;;20.17;89.77
28310;BME280;15571;50.974;13.936;2023-06-14T11:10:22;100205.31;;;20.17;91.67
28310;BME280;15571;50.974;13.936;2023-06-14T11:13:28;100206.84;;;20.23;84.80
28310;BME280;15571;50.974;13.936;2023-06-14T11:16:30;100192.50;;;20.27;82.47
28310;BME280;15571;50.974;13.936;2023-06-14T11:19:33;100188.09;;;20.45;84.84
28310;BME280;15571;50.974;13.936;2023-06-14T11:22:41;100185.84;;;20.74;85.98
28310;BME280;15571;50.974;13.936;2023-06-14T11:25:43;100195.81;;;20.88;85.82
28310;BME280;15571;50.974;13.936;2023-06-14T11:28:45;100202.38;;;20.81;86.35
28310;BME280;15571;50.974;13.936;2023-06-14T11:31:47;100203.81;;;20.88;84.81
28310;BME280;15571;50.974;13.936;2023-06-14T11:34:49;100192.78;;;20.96;84.21
28310;BME280;15571;50.974;13.936;2023-06-14T11:37:54;100194.44;;;20.98;84.00
28310;BME280;15571;50.974;13.936;2023-06-14T11:41:00;100191.00;;;20.96;86.30
28310;BME280;15571;50.974;13.936;2023-06-14T11:44:02;100189.41;;;20.75;92.16
28310;BME280;15571;50.974;13.936;2023-06-14T11:47:08;100200.31;;;21.05;87.89
28310;BME280;15571;50.974;13.936;2023-06-14T11:50:10;100203.44;;;20.96;83.38
28310;BME280;15571;50.974;13.936;2023-06-14T11:53:14;100195.25;;;21.18;84.33
28310;BME280;15571;50.974;13.936;2023-06-14T11:56:20;100200.41;;;21.04;84.49
28310;BME280;15571;50.974;13.936;2023-06-14T11:59:26;100188.44;;;21.12;86.49
28310;BME280;15571;50.974;13.936;2023-06-14T12:02:31;100185.72;;;21.32;84.37
28310;BME280;15571;50.974;13.936;2023-06-14T12:05:33;100187.56;;;21.29;83.94
28310;BME280;15571;50.974;13.936;2023-06-14T12:08:38;100182.09;;;21.15;87.43
28310;BME280;15571;50.974;13.936;2023-06-14T12:11:43;100178.78;;;20.92;91.61
28310;BME280;15571;50.974;13.936;2023-06-14T12:14:44;100185.84;;;20.93;90.64
28310;BME280;15571;50.974;13.936;2023-06-14T12:17:48;100181.78;;;21.04;90.73
28310;BME280;15571;50.974;13.936;2023-06-14T13:52:28;100137.34;;;21.06;65.80
28310;BME280;15571;50.974;13.936;2023-06-14T13:55:30;100131.34;;;21.18;66.41
28310;BME280;15571;50.974;13.936;2023-06-14T13:58:33;100130.38;;;21.21;71.06
28310;BME280;15571;50.974;13.936;2023-06-14T14:01:35;100136.38;;;21.42;66.30
28310;BME280;15571;50.974;13.936;2023-06-14T14:04:37;100129.63;;;21.52;71.99
28310;BME280;15571;50.974;13.936;2023-06-14T14:07:41;100132.28;;;21.52;74.27
28310;BME280;15571;50.974;13.936;2023-06-14T14:10:47;100128.13;;;21.46;75.00
28310;BME280;15571;50.974;13.936;2023-06-14T14:13:52;100141.22;;;21.51;75.02
28310;BME280;15571;50.974;13.936;2023-06-14T14:16:53;100136.22;;;21.27;79.85
28310;BME280;15571;50.974;13.936;2023-06-14T14:19:56;100134.81;;;21.03;87.59
28310;BME280;15571;50.974;13.936;2023-06-14T14:22:59;100128.31;;;21.08;87.47
28310;BME280;15571;50.974;13.936;2023-06-14T14:26:01;100139.19;;;21.04;85.40
28310;BME280;15571;50.974;13.936;2023-06-14T14:29:04;100137.06;;;20.93;79.88
28310;BME280;15571;50.974;13.936;2023-06-14T14:32:09;100137.34;;;21.06;76.57
28310;BME280;15571;50.974;13.936;2023-06-14T14:35:15;100132.94;;;21.05;72.15
28310;BME280;15571;50.974;13.936;2023-06-14T14:38:18;100127.44;;;21.08;77.63
28310;BME280;15571;50.974;13.936;2023-06-14T14:41:20;100127.94;;;21.16;75.41
28310;BME280;15571;50.974;13.936;2023-06-14T14:44:22;100134.34;;;21.29;75.24
28310;BME280;15571;50.974;13.936;2023-06-14T14:47:24;100121.88;;;21.48;74.25
28310;BME280;15571;50.974;13.936;2023-06-14T19:35:50;100206.63;;;19.67;98.79
28310;BME280;15571;50.974;13.936;2023-06-14T19:38:55;100211.28;;;19.62;99.83
28310;BME280;15571;50.974;13.936;2023-06-14T19:41:57;100207.88;;;19.58;100.00
28310;BME280;15571;50.974;13.936;2023-06-14T19:45:01;100214.31;;;19.53;100.00
28310;BME280;15571;50.974;13.936;2023-06-14T19:48:03;100204.91;;;19.46;100.00
28310;BME280;15571;50.974;13.936;2023-06-14T19:51:07;100215.91;;;19.36;100.00
28310;BME280;15571;50.974;13.936;2023-06-14T19:54:09;100208.19;;;19.30;100.00
28310;BME280;15571;50.974;13.936;2023-06-14T19:57:12;100215.56;;;19.23;100.00
28310;BME280;15571;50.974;13.936;2023-06-14T20:00:15;100216.81;;;19.15;100.00
28310;BME280;15571;50.974;13.936;2023-06-14T20:03:18;100213.81;;;19.02;100.00
28310;BME280;15571;50.974;13.936;2023-06-14T20:06:21;100224.59;;;18.97;100.00
28310;BME280;15571;50.974;13.936;2023-06-14T20:09:23;100233.06;;;18.83;100.00
28310;BME280;15571;50.974;13.936;2023-06-14T20:12:26;100241.31;;;18.75;100.00
28310;BME280;15571;50.974;13.936;2023-06-14T20:15:28;100245.19;;;18.66;100.00
28310;BME280;15571;50.974;13.936;2023-06-14T20:18:30;100242.03;;;18.57;100.00
28310;BME280;15571;50.974;13.936;2023-06-14T20:21:34;100247.59;;;18.50;100.00
28310;BME280;15571;50.974;13.936;2023-06-14T20:24:38;100249.44;;;18.48;100.00
28310;BME280;15571;50.974;13.936;2023-06-14T20:27:43;100243.50;;;18.42;100.00
28310;BME280;15571;50.974;13.936;2023-06-14T20:30:45;100247.31;;;18.34;100.00
28310;BME280;15571;50.974;13.936;2023-06-14T20:33:47;100258.91;;;18.32;100.00
28310;BME280;15571;50.974;13.936;2023-06-14T20:36:51;100258.91;;;18.32;100.00
28310;BME280;15571;50.974;13.936;2023-06-14T20:39:54;100258.19;;;18.27;100.00
28310;BME280;15571;50.974;13.936;2023-06-14T20:43:00;100251.31;;;18.21;100.00
28310;BME280;15571;50.974;13.936;2023-06-14T20:46:04;100245.38;;;18.14;100.00
28310;BME280;15571;50.974;13.936;2023-06-14T20:49:08;100249.13;;;18.09;100.00
28310;BME280;15571;50.974;13.936;2023-06-14T20:52:12;100248.50;;;18.02;100.00
28310;BME280;15571;50.974;13.936;2023-06-14T20:55:14;100253.16;;;17.94;100.00
28310;BME280;15571;50.974;13.936;2023-06-14T20:58:18;100252.38;;;17.90;100.00
28310;BME280;15571;50.974;13.936;2023-06-14T21:01:22;100260.50;;;17.85;100.00
28310;BME280;15571;50.974;13.936;2023-06-14T21:04:35;100248.31;;;17.81;100.00
28310;BME280;15571;50.974;13.936;2023-06-14T21:07:40;100249.25;;;17.79;100.00
28310;BME280;15571;50.974;13.936;2023-06-14T21:10:43;100254.72;;;17.74;100.00
28310;BME280;15571;50.974;13.936;2023-06-14T21:13:48;100263.84;;;17.65;100.00
28310;BME280;15571;50.974;13.936;2023-06-14T21:16:55;100265.00;;;17.56;100.00
28310;BME280;15571;50.974;13.936;2023-06-14T21:19:57;100264.56;;;17.43;100.00
28310;BME280;15571;50.974;13.936;2023-06-14T21:23:00;100262.06;;;17.39;100.00
28310;BME280;15571;50.974;13.936;2023-06-14T21:26:02;100260.44;;;17.35;100.00
28310;BME280;15571;50.974;13.936;2023-06-14T21:29:04;100259.59;;;17.34;100.00
28310;BME280;15571;50.974;13.936;2023-06-14T21:32:07;100264.22;;;17.27;100.00
28310;BME280;15571;50.974;13.936;2023-06-14T21:35:12;100262.59;;;17.23;100.00
28310;BME280;15571;50.974;13.936;2023-06-14T21:38:19;100270.84;;;17.14;100.00
28310;BME280;15571;50.974;13.936;2023-06-14T21:41:21;100255.88;;;17.13;100.00
28310;BME280;15571;50.974;13.936;2023-06-14T21:44:23;100259.53;;;17.09;100.00
28310;BME280;15571;50.974;13.936;2023-06-14T21:47:25;100256.34;;;16.98;100.00
28310;BME280;15571;50.974;13.936;2023-06-14T21:50:27;100266.19;;;16.92;100.00
28310;BME280;15571;50.974;13.936;2023-06-14T21:53:30;100268.00;;;16.90;100.00
28310;BME280;15571;50.974;13.936;2023-06-14T21:56:32;100267.38;;;16.82;100.00